Vista, CA (92084)

1:16 AM PST on February 06, 2016 (GMT -0800)
APRSWXNET | | Change Station
CLOSE
Current Station
Personal Weather Station
Location: Vista, CA
Elevation: 567 ft
Nearby Weather Stations
Active Advisory: Wind Advisory Active Notice: Local Storm Report

Elev 567 ft 33.20 °N, 117.22 °W | Updated 18 minutes ago

Clear
Clear
55 °F
Feels Like 55 °F
N
0
Wind Variable Wind from North
Gusts 0.0 mph

Today
High -- | Low -- °F
--% Chance of Precip.
Yesterday
High -- | Low -- °F
Precip. -- in
Pressure 30.23 in
Visibility 10.0 miles
Clouds Clear
Dew Point 25 °F
Humidity 31%
Rainfall in
Snow Depth Not available.
6:41 AM 5:25 PM
Waning Crescent, 6% visible
METAR KCRQ 060853Z 00000KT 10SM CLR 13/M04 A3024 RMK AO2 SLP237 T01331039 58003
Pressure 30.23 in
Visibility 10.0 miles
Clouds Clear
Dew Point 25 °F
Humidity 31%
Rainfall in
Snow Depth Not available.
6:41 AM 5:25 PM
Waning Crescent, 6% visible
METAR KCRQ 060853Z 00000KT 10SM CLR 13/M04 A3024 RMK AO2 SLP237 T01331039 58003

10-Day Weather Forecast

Almanac

Astronomy

Feb. 06, 2016 Rise Set
Actual Time
Civil Twilight
Nautical Twilight
Astronomical Twilight
Moon
Length of Visible Light
Length of Day
Tomorrow will be .
, % of the Moon is Illuminated

Today's Extremes

State Highs State Lows

Community

WunderPhotos

Upload Photos

1,890,933 photos uploaded!

WunderBlog® & News

Nearby

Air Quality

  Air Quality AQ Index Pollutant
Not available.

Snow Depth

Station Depth Elevation

Earthquake Activity

City Distance Mag. Time & Date
Minimum magnitude displayed is 2.5.

Coastal Water Temperatures

Place Temperature

Stations

Nearby Weather Stations

Station Location Temp. Windchill Dew Point Humidity Wind Precip. Elev Updated Type
                   

Watches & Warnings

Wind Advisory
Issued: 8:56 PM PST Feb. 5, 2016 – National Weather Service

... Wind Advisory remains in effect until 1 PM PST Saturday...

* winds... areas of northeast to east winds 20 to 30 mph with gusts
of 40 to 50 mph. Gusts to 60 mph in the windiest locations.

* Timing... gusty winds tonight strengthening Saturday morning
into early Saturday afternoon.

* Location... strongest winds along coastal slopes and
foothills... and through and below the passes and canyons...
including Cajon and san gorgonio passes.

* Visibility... locally reduced to 1 mile or less in blowing dust.

* Impacts... the strong winds will make for hazardous driving
conditions for high profile vehicles... including along
interstates 15... 215... 10... and 8. Blowing dust may reduce
visibilities. Broken tree limbs and other debris in roadways
possible.

* Outlook... although winds will weaken later Saturday
afternoon... even stronger Santa Ana winds will surface Sunday
and Monday.

Precautionary/preparedness actions...

A Wind Advisory means that winds of 35 mph are expected. Winds
this strong can make driving difficult... especially for high
profile vehicles. Use extra caution.



Moede